createdAt,value
2017-12-06T00:00:57.506Z,10.80
2017-12-06T00:03:32.037Z,13.43
2017-12-06T00:06:06.470Z,18.70
2017-12-06T00:08:40.967Z,14.07
2017-12-06T00:11:15.354Z,20.60
2017-12-06T00:16:54.769Z,14.97
2017-12-06T00:19:29.205Z,11.43
2017-12-06T00:22:03.530Z,12.73
2017-12-06T00:24:37.826Z,10.80
2017-12-06T00:27:12.209Z,11.60
2017-12-06T00:29:46.885Z,13.77
2017-12-06T00:32:21.241Z,13.23
2017-12-06T00:34:55.831Z,14.03
2017-12-06T00:37:30.301Z,15.47
2017-12-06T00:40:08.768Z,14.40
2017-12-06T00:42:43.148Z,10.57
2017-12-06T00:45:20.868Z,17.80
2017-12-06T00:47:55.429Z,13.00
2017-12-06T00:50:30.546Z,12.90
2017-12-06T00:53:04.994Z,13.20
2017-12-06T00:55:39.597Z,13.90
2017-12-06T00:58:14.077Z,14.70
2017-12-06T01:00:47.914Z,11.53
2017-12-06T01:03:22.307Z,13.50
2017-12-06T01:05:56.799Z,12.23
2017-12-06T01:08:31.265Z,14.07
2017-12-06T01:11:05.726Z,9.73
2017-12-06T01:13:40.162Z,9.23
2017-12-06T01:16:14.542Z,10.30
2017-12-06T01:18:49.168Z,10.13
2017-12-06T01:21:23.542Z,10.87
2017-12-06T01:23:58.078Z,17.03
2017-12-06T01:26:32.538Z,9.13
2017-12-06T01:29:06.897Z,7.80
2017-12-06T01:31:41.270Z,9.30
2017-12-06T01:34:16.618Z,9.50
2017-12-06T01:36:51.186Z,10.70
2017-12-06T01:39:25.789Z,11.80
2017-12-06T01:42:00.181Z,10.50
2017-12-06T01:44:34.586Z,9.77
2017-12-06T01:47:08.770Z,10.47
2017-12-06T01:49:43.261Z,8.30
2017-12-06T01:52:17.654Z,10.30
2017-12-06T01:54:52.046Z,11.20
2017-12-06T01:57:25.968Z,14.30
2017-12-06T02:00:00.514Z,9.00
2017-12-06T02:02:35.093Z,12.30
2017-12-06T02:05:10.194Z,10.80
2017-12-06T02:07:44.581Z,9.23
2017-12-06T02:10:19.057Z,13.57
2017-12-06T02:12:53.494Z,11.10
2017-12-06T02:15:28.017Z,10.50
2017-12-06T02:18:02.541Z,9.60
2017-12-06T02:20:36.566Z,11.27
2017-12-06T02:23:11.016Z,12.27
2017-12-06T02:25:45.102Z,12.97
2017-12-06T02:28:19.185Z,10.43
2017-12-06T02:30:53.620Z,14.23
2017-12-06T02:33:28.078Z,14.23
2017-12-06T02:36:02.558Z,10.37
2017-12-06T02:38:36.998Z,11.13
2017-12-06T02:41:22.479Z,13.03
2017-12-06T02:44:08.291Z,12.00
2017-12-06T02:46:42.502Z,10.23
2017-12-06T02:49:16.935Z,11.43
2017-12-06T02:51:51.442Z,10.27
2017-12-06T02:54:26.018Z,10.30
2017-12-06T02:57:00.456Z,12.23
2017-12-06T02:59:34.978Z,13.20
2017-12-06T03:02:09.430Z,12.80
2017-12-06T03:04:43.998Z,11.50
2017-12-06T03:07:18.358Z,9.63
2017-12-06T03:09:52.870Z,10.30
2017-12-06T03:12:27.261Z,11.07
2017-12-06T03:15:01.775Z,12.43
2017-12-06T03:17:36.226Z,12.80
2017-12-06T03:20:10.738Z,9.57
2017-12-06T03:22:45.330Z,8.43
2017-12-06T03:25:19.817Z,11.07
2017-12-06T03:27:54.404Z,11.70
2017-12-06T03:30:29.044Z,11.50
2017-12-06T03:33:03.494Z,13.17
2017-12-06T03:35:38.006Z,12.00
2017-12-06T03:38:12.603Z,11.27
2017-12-06T03:40:47.015Z,10.93
2017-12-06T03:43:21.677Z,11.43
2017-12-06T03:45:56.052Z,10.10
2017-12-06T03:48:30.513Z,12.00
2017-12-06T03:51:04.978Z,16.80
2017-12-06T03:53:39.474Z,12.93
2017-12-06T03:56:14.006Z,9.10
2017-12-06T03:58:48.318Z,10.70
2017-12-06T04:01:22.786Z,8.17
2017-12-06T04:03:57.325Z,11.23
2017-12-06T04:06:31.790Z,17.67
2017-12-06T04:09:06.337Z,14.73
2017-12-06T04:11:40.830Z,10.90
2017-12-06T04:14:15.210Z,11.30
2017-12-06T04:16:49.610Z,9.80
2017-12-06T04:19:23.815Z,9.13
2017-12-06T04:21:58.298Z,11.13
2017-12-06T04:24:33.028Z,12.20
2017-12-06T04:27:07.470Z,10.17
2017-12-06T04:29:41.880Z,9.60
2017-12-06T04:32:16.340Z,13.33
2017-12-06T04:34:50.766Z,8.13
2017-12-06T04:37:25.134Z,10.73
2017-12-06T04:39:59.741Z,10.97
2017-12-06T04:42:34.142Z,9.53
2017-12-06T04:45:09.250Z,10.83
2017-12-06T04:47:43.809Z,17.97
2017-12-06T04:50:18.180Z,11.30
2017-12-06T04:52:52.615Z,10.40
2017-12-06T04:55:27.097Z,11.40
2017-12-06T04:58:01.537Z,14.97
2017-12-06T05:00:35.930Z,13.60
2017-12-06T05:03:10.282Z,9.83
2017-12-06T05:05:44.813Z,13.40
2017-12-06T05:08:19.306Z,9.27
2017-12-06T05:10:53.730Z,12.17
2017-12-06T05:13:28.328Z,11.43
2017-12-06T05:16:02.826Z,8.83
2017-12-06T05:18:37.262Z,12.10
2017-12-06T05:21:11.732Z,8.43
2017-12-06T05:23:46.388Z,12.93
2017-12-06T05:26:20.816Z,11.17
2017-12-06T05:28:55.412Z,15.40
2017-12-06T05:31:29.786Z,13.10
2017-12-06T05:34:04.444Z,12.80
2017-12-06T05:36:39.006Z,11.40
2017-12-06T05:39:13.381Z,16.50
2017-12-06T05:41:47.878Z,12.60
2017-12-06T05:44:22.386Z,11.70
2017-12-06T05:46:56.886Z,13.10
2017-12-06T05:49:31.414Z,15.53
2017-12-06T05:52:05.771Z,10.57
2017-12-06T05:54:40.363Z,10.93
2017-12-06T05:57:14.806Z,8.30
2017-12-06T05:59:49.266Z,13.20
2017-12-06T06:02:23.472Z,14.23
2017-12-06T06:04:58.248Z,9.63
2017-12-06T06:07:32.632Z,10.90
2017-12-06T06:10:07.106Z,9.93
2017-12-06T06:12:41.631Z,10.60
2017-12-06T06:15:16.025Z,10.27
2017-12-06T06:17:50.541Z,10.90
2017-12-06T06:20:24.679Z,9.50
2017-12-06T06:22:59.190Z,9.03
2017-12-06T06:25:33.689Z,10.03
2017-12-06T06:28:09.348Z,9.83
2017-12-06T06:30:43.818Z,11.30
2017-12-06T06:33:18.306Z,13.50
2017-12-06T06:35:52.698Z,9.60
2017-12-06T06:38:27.226Z,15.73
2017-12-06T06:41:01.585Z,9.63
2017-12-06T06:43:36.954Z,12.00
2017-12-06T06:46:11.323Z,9.43
2017-12-06T06:48:45.810Z,11.47
2017-12-06T06:51:20.270Z,10.40
2017-12-06T06:53:54.752Z,13.47
2017-12-06T06:56:29.114Z,8.53
2017-12-06T06:59:03.537Z,10.23
2017-12-06T07:01:38.026Z,7.70
2017-12-06T07:04:12.805Z,7.90
2017-12-06T07:06:47.448Z,9.50
2017-12-06T07:09:21.826Z,9.80
2017-12-06T07:11:56.918Z,11.30
2017-12-06T07:14:31.320Z,10.93
2017-12-06T07:17:05.684Z,9.23
2017-12-06T07:19:45.579Z,10.10
2017-12-06T07:22:20.086Z,7.33
2017-12-06T07:24:54.618Z,7.67
2017-12-06T07:27:28.979Z,8.00
2017-12-06T07:30:04.105Z,11.23
2017-12-06T07:32:39.884Z,8.50
2017-12-06T07:35:14.303Z,9.27
2017-12-06T07:37:49.508Z,11.57
2017-12-06T07:40:24.692Z,7.40
2017-12-06T07:42:59.233Z,9.37
2017-12-06T07:45:33.692Z,9.37
2017-12-06T07:48:08.077Z,11.43
2017-12-06T07:50:42.526Z,14.40
2017-12-06T07:53:16.955Z,6.10
2017-12-06T07:55:51.359Z,9.30
2017-12-06T07:58:31.202Z,9.37
2017-12-06T08:01:05.741Z,9.77
2017-12-06T08:03:40.238Z,7.40
2017-12-06T08:06:14.606Z,7.40
2017-12-06T08:08:48.958Z,6.00
2017-12-06T08:11:23.432Z,6.97
2017-12-06T08:13:57.933Z,9.17
2017-12-06T08:16:32.349Z,6.67
2017-12-06T08:19:06.899Z,12.67
2017-12-06T08:21:41.365Z,7.37
2017-12-06T08:24:16.802Z,9.00
2017-12-06T08:26:51.565Z,9.03
2017-12-06T08:29:26.711Z,7.63
2017-12-06T08:32:01.428Z,6.80
2017-12-06T08:34:36.718Z,4.97
2017-12-06T08:37:11.204Z,7.83
2017-12-06T08:39:45.415Z,5.43
2017-12-06T08:42:19.646Z,9.20
2017-12-06T08:44:53.840Z,7.57
2017-12-06T08:47:29.005Z,7.20
2017-12-06T08:50:03.510Z,5.60
2017-12-06T08:52:38.186Z,8.83
2017-12-06T08:55:12.717Z,5.60
2017-12-06T08:57:46.890Z,6.20
2017-12-06T09:00:21.357Z,15.87
2017-12-06T09:02:56.039Z,7.13
2017-12-06T09:05:30.670Z,12.13
2017-12-06T09:08:05.625Z,7.93
2017-12-06T09:10:40.092Z,7.77
2017-12-06T09:13:14.204Z,6.33
2017-12-06T09:15:48.602Z,8.63
2017-12-06T09:18:23.144Z,5.80
2017-12-06T09:20:57.651Z,5.07
2017-12-06T09:23:32.157Z,5.17
2017-12-06T09:26:06.222Z,5.00
2017-12-06T09:28:40.742Z,10.03
2017-12-06T09:31:16.605Z,4.60
2017-12-06T09:33:51.714Z,4.60
2017-12-06T09:36:27.082Z,5.27
2017-12-06T09:39:01.762Z,7.13
2017-12-06T09:41:36.177Z,6.43
2017-12-06T09:44:10.657Z,4.67
2017-12-06T09:46:45.113Z,6.27
2017-12-06T09:49:19.598Z,4.30
2017-12-06T09:51:53.970Z,7.07
2017-12-06T09:54:28.662Z,5.43
2017-12-06T09:57:03.234Z,5.60
2017-12-06T09:59:37.616Z,4.50
2017-12-06T10:02:12.078Z,4.93
2017-12-06T10:04:46.714Z,10.10
2017-12-06T10:07:21.823Z,6.23
2017-12-06T10:09:56.199Z,4.13
2017-12-06T10:12:30.590Z,9.97
2017-12-06T10:15:05.281Z,8.10
2017-12-06T10:17:40.765Z,4.60
2017-12-06T10:20:15.370Z,9.60
2017-12-06T10:22:49.926Z,4.60
2017-12-06T10:25:24.338Z,4.33
2017-12-06T10:27:58.405Z,5.23
2017-12-06T10:30:34.658Z,3.43
2017-12-06T10:33:09.521Z,4.47
2017-12-06T10:35:43.700Z,5.07
2017-12-06T10:38:19.506Z,3.53
2017-12-06T10:40:54.130Z,4.57
2017-12-06T10:43:28.578Z,3.57
2017-12-06T10:46:03.086Z,11.40
2017-12-06T10:48:37.577Z,6.00
2017-12-06T10:51:11.954Z,4.87
2017-12-06T10:53:46.807Z,4.03
2017-12-06T10:56:21.371Z,5.23
2017-12-06T10:58:55.889Z,3.77
2017-12-06T11:01:30.498Z,3.73
2017-12-06T11:04:05.012Z,4.63
2017-12-06T11:06:39.419Z,7.57
2017-12-06T11:09:13.902Z,6.40
2017-12-06T11:11:49.194Z,4.97
2017-12-06T11:14:24.394Z,5.30
2017-12-06T11:16:59.007Z,12.90
2017-12-06T11:19:34.210Z,4.10
2017-12-06T11:22:08.770Z,4.23
2017-12-06T11:24:43.381Z,3.00
2017-12-06T11:27:17.574Z,3.87
2017-12-06T11:29:51.973Z,3.57
2017-12-06T11:32:26.931Z,4.90
2017-12-06T11:35:01.395Z,7.73
2017-12-06T11:37:35.987Z,5.50
2017-12-06T11:40:12.458Z,4.93
2017-12-06T11:42:47.105Z,5.03
2017-12-06T11:45:22.386Z,5.10
2017-12-06T11:47:57.002Z,5.67
2017-12-06T11:50:31.385Z,11.23
2017-12-06T11:53:06.002Z,9.53
2017-12-06T11:55:40.456Z,7.63
2017-12-06T11:58:17.958Z,4.17
2017-12-06T12:00:52.146Z,5.73
2017-12-06T12:03:26.655Z,5.83
2017-12-06T12:06:01.168Z,12.83
2017-12-06T12:08:38.379Z,10.03
2017-12-06T12:11:13.544Z,8.43
2017-12-06T12:13:48.069Z,6.53
2017-12-06T12:16:22.959Z,5.90
2017-12-06T12:18:57.357Z,6.23
2017-12-06T12:21:31.983Z,4.90
2017-12-06T12:24:06.622Z,6.33
2017-12-06T12:26:41.001Z,8.47
2017-12-06T12:29:15.383Z,8.90
2017-12-06T12:31:49.878Z,10.10
2017-12-06T12:34:24.346Z,6.53
2017-12-06T12:36:58.539Z,5.00
2017-12-06T12:39:32.613Z,11.10
2017-12-06T12:42:06.695Z,5.20
2017-12-06T12:44:40.766Z,8.10
2017-12-06T12:47:14.858Z,6.70
2017-12-06T12:49:49.617Z,7.33
2017-12-06T12:52:23.741Z,5.50
2017-12-06T12:54:57.908Z,11.10
2017-12-06T12:57:32.362Z,6.00
2017-12-06T13:00:06.482Z,4.30
2017-12-06T13:02:40.638Z,7.00
2017-12-06T13:05:14.770Z,5.90
2017-12-06T13:07:48.850Z,13.33
2017-12-06T13:10:23.305Z,7.00
2017-12-06T13:12:57.530Z,9.30
2017-12-06T13:15:31.624Z,8.10
2017-12-06T13:18:06.536Z,8.13
2017-12-06T13:20:41.482Z,9.27
2017-12-06T13:23:16.689Z,7.70
2017-12-06T13:25:50.924Z,6.73
2017-12-06T13:28:25.178Z,14.63
2017-12-06T13:30:59.639Z,10.10
2017-12-06T13:33:33.850Z,6.20
2017-12-06T13:36:08.290Z,7.73
2017-12-06T13:38:42.635Z,8.60
2017-12-06T13:41:17.357Z,8.00
2017-12-06T13:43:51.585Z,9.03
2017-12-06T13:46:25.834Z,10.33
2017-12-06T13:48:59.973Z,8.50
2017-12-06T13:51:34.334Z,15.33
2017-12-06T13:54:08.602Z,10.73
2017-12-06T13:56:42.738Z,12.07
2017-12-06T13:59:17.353Z,9.00
2017-12-06T14:01:51.790Z,16.57
2017-12-06T14:04:25.958Z,9.53
2017-12-06T14:07:00.393Z,8.87
2017-12-06T14:09:34.482Z,10.33
2017-12-06T14:12:08.789Z,8.23
2017-12-06T14:14:43.365Z,11.33
2017-12-06T14:17:17.422Z,8.90
2017-12-06T14:19:52.042Z,9.43
2017-12-06T14:22:26.446Z,9.30
2017-12-06T14:25:00.708Z,7.03
2017-12-06T14:27:34.882Z,7.40
2017-12-06T14:30:10.372Z,9.70
2017-12-06T14:32:44.734Z,9.43
2017-12-06T14:35:18.751Z,10.90
2017-12-06T14:37:52.737Z,9.37
2017-12-06T14:40:27.920Z,8.73
2017-12-06T14:43:02.193Z,7.13
2017-12-06T14:45:36.667Z,7.27
2017-12-06T14:48:10.931Z,11.93
2017-12-06T14:50:45.118Z,6.97
2017-12-06T14:53:19.331Z,11.70
2017-12-06T14:55:53.547Z,7.60
2017-12-06T14:58:27.612Z,9.00
2017-12-06T15:01:02.005Z,10.50
2017-12-06T15:03:36.440Z,10.67
2017-12-06T15:06:10.866Z,9.00
2017-12-06T15:08:44.986Z,11.90
2017-12-06T15:11:19.222Z,10.03
2017-12-06T15:13:53.455Z,9.63
2017-12-06T15:16:27.568Z,10.20
2017-12-06T15:19:01.770Z,11.43
2017-12-06T15:21:36.131Z,20.97
2017-12-06T15:24:10.290Z,11.00
2017-12-06T15:26:44.367Z,12.07
2017-12-06T15:29:18.454Z,9.20
2017-12-06T15:31:52.606Z,12.63
2017-12-06T15:34:26.762Z,11.57
2017-12-06T15:37:01.273Z,10.07
2017-12-06T15:39:35.322Z,12.07
2017-12-06T15:42:09.381Z,9.93
2017-12-06T15:44:44.542Z,17.03
2017-12-06T15:47:19.142Z,11.10
2017-12-06T15:49:53.417Z,9.47
2017-12-06T15:52:27.681Z,11.67
2017-12-06T15:55:02.110Z,9.37
2017-12-06T15:57:36.214Z,11.33
2017-12-06T16:00:11.093Z,11.37
2017-12-06T16:02:46.074Z,17.70
2017-12-06T16:05:20.277Z,10.27
2017-12-06T16:07:54.790Z,11.87
2017-12-06T16:10:28.849Z,16.30
2017-12-06T16:13:03.238Z,11.30
2017-12-06T16:15:37.552Z,12.73
2017-12-06T16:18:11.654Z,11.03
2017-12-06T16:20:46.038Z,10.80
2017-12-06T16:23:20.618Z,12.30
2017-12-06T16:25:54.780Z,13.47
2017-12-06T16:28:28.867Z,33.77
2017-12-06T16:31:03.422Z,12.67
2017-12-06T16:33:37.426Z,12.63
2017-12-06T16:36:22.935Z,12.80
2017-12-06T16:38:57.151Z,10.30
2017-12-06T16:41:31.606Z,13.67
2017-12-06T16:44:05.839Z,12.60
2017-12-06T16:46:40.046Z,14.50
2017-12-06T16:49:14.528Z,10.77
2017-12-06T16:51:48.974Z,9.63
2017-12-06T16:54:23.546Z,10.83
2017-12-06T16:56:58.041Z,11.63
2017-12-06T16:59:32.230Z,11.13
2017-12-06T17:02:06.889Z,9.07
2017-12-06T17:04:41.674Z,10.20
2017-12-06T17:07:16.227Z,8.17
2017-12-06T17:09:50.295Z,10.73
2017-12-06T17:12:24.358Z,9.63
2017-12-06T17:14:59.159Z,13.50
2017-12-06T17:17:33.606Z,10.07
2017-12-06T17:20:07.979Z,12.00
2017-12-06T17:22:42.174Z,9.90
2017-12-06T17:25:17.457Z,10.07
2017-12-06T17:27:51.590Z,11.33
2017-12-06T17:30:37.170Z,10.70
2017-12-06T17:33:11.372Z,14.03
2017-12-06T17:35:45.522Z,13.67
2017-12-06T17:38:20.525Z,13.23
2017-12-06T17:40:54.765Z,15.03
2017-12-06T17:43:28.949Z,14.00
2017-12-06T17:46:02.806Z,14.30
2017-12-06T17:48:36.940Z,10.97
2017-12-06T17:51:10.961Z,10.90
2017-12-06T17:53:45.031Z,12.43
2017-12-06T17:56:19.094Z,11.60
2017-12-06T17:58:53.309Z,9.80
2017-12-06T18:01:27.339Z,9.80
2017-12-06T18:04:01.543Z,16.80
2017-12-06T18:06:36.409Z,11.80
2017-12-06T18:09:10.958Z,11.20
2017-12-06T18:11:45.053Z,10.10
2017-12-06T18:14:19.150Z,15.43
2017-12-06T18:16:53.119Z,11.00
2017-12-06T18:19:27.353Z,13.33
2017-12-06T18:22:01.456Z,15.73
2017-12-06T18:24:35.898Z,11.90
2017-12-06T18:27:10.022Z,11.33
2017-12-06T18:29:44.482Z,14.47
2017-12-06T18:32:18.594Z,10.77
2017-12-06T18:34:53.214Z,12.40
2017-12-06T18:37:27.886Z,11.03
2017-12-06T18:40:01.969Z,11.77
2017-12-06T18:42:36.145Z,14.27
2017-12-06T18:45:12.419Z,15.60
2017-12-06T18:47:47.002Z,12.97
2017-12-06T18:50:21.546Z,18.77
2017-12-06T18:52:56.035Z,13.13
2017-12-06T18:55:30.270Z,14.50
2017-12-06T18:58:04.922Z,33.60
2017-12-06T19:00:39.119Z,13.33
2017-12-06T19:03:13.691Z,14.73
2017-12-06T19:05:48.150Z,13.30
2017-12-06T19:08:22.730Z,12.07
2017-12-06T19:10:57.122Z,12.60
2017-12-06T19:13:31.623Z,17.33
2017-12-06T19:16:06.007Z,15.50
2017-12-06T19:18:40.586Z,21.03
2017-12-06T19:21:15.000Z,13.13
2017-12-06T19:23:49.486Z,13.17
2017-12-06T19:26:23.916Z,12.80
2017-12-06T19:28:59.150Z,13.00
2017-12-06T19:31:34.297Z,20.47
2017-12-06T19:34:08.746Z,13.63
2017-12-06T19:36:43.164Z,14.37
2017-12-06T19:39:17.687Z,11.60
2017-12-06T19:41:52.258Z,16.23
2017-12-06T19:44:26.803Z,16.77
2017-12-06T19:47:02.021Z,17.50
2017-12-06T19:49:36.574Z,19.23
2017-12-06T19:52:11.810Z,17.60
2017-12-06T19:54:46.406Z,15.07
2017-12-06T19:57:20.847Z,15.10
2017-12-06T19:59:55.318Z,14.10
2017-12-06T20:02:29.705Z,18.90
2017-12-06T20:05:10.114Z,17.60
2017-12-06T20:07:44.650Z,15.73
2017-12-06T20:10:19.451Z,13.67
2017-12-06T20:12:53.964Z,15.50
2017-12-06T20:15:28.728Z,14.13
2017-12-06T20:18:03.849Z,11.00
2017-12-06T20:20:38.289Z,13.37
2017-12-06T20:23:12.837Z,14.87
2017-12-06T20:25:48.243Z,16.70
2017-12-06T20:28:22.837Z,14.70
2017-12-06T20:30:57.254Z,18.80
2017-12-06T20:33:31.730Z,16.60
2017-12-06T20:36:07.265Z,17.43
2017-12-06T20:38:43.452Z,15.63
2017-12-06T20:41:18.091Z,16.07
2017-12-06T20:43:52.505Z,16.83
2017-12-06T20:46:28.065Z,15.07
2017-12-06T20:49:03.190Z,15.50
2017-12-06T20:51:38.002Z,18.23
2017-12-06T20:54:12.570Z,17.00
2017-12-06T20:56:46.895Z,17.27
2017-12-06T20:59:21.658Z,24.53
2017-12-06T21:01:56.097Z,16.10
2017-12-06T21:04:30.577Z,15.43
2017-12-06T21:07:04.977Z,23.73
2017-12-06T21:09:39.346Z,17.03
2017-12-06T21:12:13.811Z,17.00
2017-12-06T21:14:48.045Z,18.80
2017-12-06T21:17:22.409Z,13.93
2017-12-06T21:19:56.998Z,18.30
2017-12-06T21:22:31.432Z,14.00
2017-12-06T21:25:09.737Z,16.10
2017-12-06T21:27:44.935Z,14.17
2017-12-06T21:30:19.366Z,16.00
2017-12-06T21:32:53.886Z,15.20
2017-12-06T21:35:28.293Z,16.00
2017-12-06T21:38:02.909Z,18.80
2017-12-06T21:40:37.485Z,16.30
2017-12-06T21:43:12.062Z,16.17
2017-12-06T21:45:46.477Z,13.80
2017-12-06T21:48:20.889Z,15.40
2017-12-06T21:50:55.302Z,12.67
2017-12-06T21:53:29.795Z,12.33
2017-12-06T21:56:04.165Z,13.00
2017-12-06T21:58:38.799Z,15.77
2017-12-06T22:01:13.758Z,18.30
2017-12-06T22:03:48.207Z,14.03
2017-12-06T22:06:22.434Z,15.63
2017-12-06T22:08:57.427Z,15.63
2017-12-06T22:11:32.026Z,20.20
2017-12-06T22:14:07.252Z,18.27
2017-12-06T22:16:41.674Z,12.87
2017-12-06T22:19:16.233Z,17.03
2017-12-06T22:21:50.874Z,20.70
2017-12-06T22:24:25.422Z,13.53
2017-12-06T22:26:59.974Z,16.90
2017-12-06T22:29:34.456Z,15.97
2017-12-06T22:32:09.079Z,17.70
2017-12-06T22:34:44.035Z,18.53
2017-12-06T22:37:18.486Z,16.73
2017-12-06T22:39:52.771Z,14.90
2017-12-06T22:42:27.354Z,15.97
2017-12-06T22:45:12.860Z,16.93
2017-12-06T22:47:47.380Z,16.03
2017-12-06T22:50:21.799Z,16.50
2017-12-06T22:52:56.343Z,16.90
2017-12-06T22:55:30.717Z,17.33
2017-12-06T22:58:04.936Z,13.60
2017-12-06T23:00:39.294Z,16.53
2017-12-06T23:03:13.497Z,14.30
2017-12-06T23:05:47.880Z,20.30
2017-12-06T23:08:22.353Z,23.63
2017-12-06T23:10:56.853Z,17.53
2017-12-06T23:13:31.344Z,17.10
2017-12-06T23:16:05.710Z,17.97
2017-12-06T23:18:40.078Z,12.70
2017-12-06T23:21:14.436Z,17.33
2017-12-06T23:23:48.872Z,15.57
2017-12-06T23:26:23.302Z,16.43
2017-12-06T23:28:57.803Z,20.27
2017-12-06T23:31:32.322Z,19.43
2017-12-06T23:34:06.734Z,15.67
2017-12-06T23:36:41.261Z,17.30
2017-12-06T23:39:16.259Z,20.37
2017-12-06T23:41:50.518Z,18.43
2017-12-06T23:44:24.878Z,18.43
2017-12-06T23:47:00.218Z,18.00
2017-12-06T23:49:34.570Z,16.00
2017-12-06T23:52:09.113Z,15.50
2017-12-06T23:54:43.710Z,16.50
2017-12-06T23:57:18.279Z,16.57
2017-12-06T23:59:52.807Z,19.80
